createdAt,value
2022-08-30T00:02:25.367Z,0.75
2022-08-30T00:04:54.401Z,1.00
2022-08-30T00:07:22.246Z,0.85
2022-08-30T00:09:49.447Z,0.65
2022-08-30T00:12:16.789Z,0.77
2022-08-30T00:14:43.992Z,0.70
2022-08-30T00:17:13.663Z,0.70
2022-08-30T00:19:42.740Z,0.77
2022-08-30T00:22:10.333Z,0.98
2022-08-30T00:24:38.351Z,0.80
2022-08-30T00:27:08.155Z,0.88
2022-08-30T00:29:37.864Z,0.88
2022-08-30T00:32:05.681Z,0.90
2022-08-30T00:34:32.981Z,0.52
2022-08-30T00:37:00.446Z,0.73
2022-08-30T00:39:28.972Z,0.75
2022-08-30T00:41:56.179Z,0.80
2022-08-30T00:44:24.280Z,0.80
2022-08-30T00:46:53.955Z,0.90
2022-08-30T00:49:21.080Z,0.80
2022-08-30T00:51:48.735Z,0.60
2022-08-30T00:54:17.050Z,1.13
2022-08-30T00:56:44.658Z,1.00
2022-08-30T00:59:12.127Z,1.05
2022-08-30T01:01:39.498Z,1.00
2022-08-30T01:04:08.880Z,0.90
2022-08-30T01:06:39.995Z,0.93
2022-08-30T01:09:09.106Z,1.20
2022-08-30T01:11:38.196Z,0.95
2022-08-30T01:14:06.754Z,1.20
2022-08-30T01:16:35.594Z,0.95
2022-08-30T01:19:03.924Z,0.73
2022-08-30T01:21:51.754Z,0.98
2022-08-30T01:24:22.111Z,0.85
2022-08-30T01:26:49.285Z,0.73
2022-08-30T01:29:23.149Z,0.80
2022-08-30T01:31:50.309Z,0.90
2022-08-30T01:34:17.675Z,0.77
2022-08-30T01:36:46.552Z,1.10
2022-08-30T01:39:16.654Z,0.75
2022-08-30T01:41:44.009Z,0.60
2022-08-30T01:44:13.727Z,0.70
2022-08-30T01:46:46.580Z,0.60
2022-08-30T01:49:23.066Z,0.50
2022-08-30T01:52:00.582Z,0.73
2022-08-30T01:54:37.954Z,0.60
2022-08-30T01:57:12.099Z,0.80
2022-08-30T01:59:42.967Z,0.60
2022-08-30T02:02:11.022Z,0.70
2022-08-30T02:04:38.257Z,0.70
2022-08-30T02:07:05.738Z,0.50
2022-08-30T02:09:35.252Z,0.57
2022-08-30T02:12:05.237Z,0.60
2022-08-30T02:14:32.490Z,0.45
2022-08-30T02:16:59.673Z,0.40
2022-08-30T02:19:26.797Z,0.60
2022-08-30T02:21:53.917Z,0.60
2022-08-30T02:24:21.342Z,0.80
2022-08-30T02:26:53.164Z,0.63
2022-08-30T02:29:22.501Z,0.63
2022-08-30T02:31:50.160Z,0.80
2022-08-30T02:34:21.271Z,0.50
2022-08-30T02:36:48.874Z,0.43
2022-08-30T02:39:16.575Z,0.50
2022-08-30T02:41:43.948Z,0.63
2022-08-30T02:44:11.512Z,0.47
2022-08-30T02:46:40.175Z,0.30
2022-08-30T02:49:30.266Z,0.50
2022-08-30T02:51:56.012Z,0.60
2022-08-30T02:54:23.120Z,0.40
2022-08-30T02:56:51.181Z,0.47
2022-08-30T02:59:18.912Z,0.40
2022-08-30T03:01:46.168Z,0.52
2022-08-30T03:04:13.460Z,0.60
2022-08-30T03:06:40.595Z,0.60
2022-08-30T03:09:07.849Z,0.43
2022-08-30T03:11:34.979Z,0.50
2022-08-30T03:14:04.387Z,0.50
2022-08-30T03:16:31.609Z,0.70
2022-08-30T03:18:58.860Z,0.65
2022-08-30T03:21:28.024Z,1.00
2022-08-30T03:23:55.179Z,0.38
2022-08-30T03:26:22.323Z,0.73
2022-08-30T03:28:49.597Z,0.50
2022-08-30T03:31:16.784Z,0.70
2022-08-30T03:33:44.098Z,0.68
2022-08-30T03:36:12.150Z,0.55
2022-08-30T03:38:43.019Z,0.50
2022-08-30T03:41:10.469Z,0.63
2022-08-30T03:43:37.653Z,0.90
2022-08-30T03:46:11.089Z,0.60
2022-08-30T03:48:38.307Z,0.63
2022-08-30T03:51:06.028Z,0.50
2022-08-30T03:53:33.526Z,0.80
2022-08-30T03:56:02.187Z,0.65
2022-08-30T03:58:29.313Z,0.90
2022-08-30T04:00:56.490Z,0.70
2022-08-30T04:03:26.118Z,0.90
2022-08-30T04:05:54.652Z,0.68
2022-08-30T04:08:23.069Z,0.82
2022-08-30T04:10:50.864Z,0.70
2022-08-30T04:13:18.157Z,0.52
2022-08-30T04:15:45.402Z,0.77
2022-08-30T04:18:12.790Z,0.85
2022-08-30T04:20:40.006Z,0.90
2022-08-30T04:23:07.814Z,0.80
2022-08-30T04:25:39.312Z,0.80
2022-08-30T04:28:07.548Z,0.98
2022-08-30T04:30:38.443Z,0.55
2022-08-30T04:33:05.637Z,1.23
2022-08-30T04:35:32.785Z,0.80
2022-08-30T04:38:00.008Z,1.08
2022-08-30T04:40:27.201Z,1.02
2022-08-30T04:42:54.624Z,0.80
2022-08-30T04:45:22.274Z,0.88
2022-08-30T04:47:49.566Z,0.60
2022-08-30T04:50:23.221Z,0.80
2022-08-30T04:52:50.478Z,1.08
2022-08-30T04:55:20.262Z,0.60
2022-08-30T04:57:48.709Z,0.90
2022-08-30T05:00:16.114Z,1.05
2022-08-30T05:02:43.368Z,0.80
2022-08-30T05:05:39.862Z,0.82
2022-08-30T05:08:09.750Z,0.88
2022-08-30T05:10:40.866Z,0.75
2022-08-30T05:13:10.960Z,1.00
2022-08-30T05:15:41.535Z,0.88
2022-08-30T05:18:11.405Z,1.08
2022-08-30T05:20:43.310Z,0.65
2022-08-30T05:23:10.890Z,0.85
2022-08-30T05:25:41.017Z,1.10
2022-08-30T05:28:09.335Z,0.70
2022-08-30T05:30:38.458Z,0.95
2022-08-30T05:33:05.767Z,0.90
2022-08-30T05:35:33.100Z,1.02
2022-08-30T05:38:02.706Z,0.80
2022-08-30T05:40:30.367Z,0.80
2022-08-30T05:42:58.583Z,0.80
2022-08-30T05:45:25.801Z,0.80
2022-08-30T05:47:52.964Z,1.02
2022-08-30T05:50:20.308Z,0.52
2022-08-30T05:52:47.444Z,0.90
2022-08-30T05:55:19.024Z,0.50
2022-08-30T05:57:46.340Z,0.90
2022-08-30T06:00:18.135Z,0.60
2022-08-30T06:02:46.063Z,0.70
2022-08-30T06:05:15.826Z,1.10
2022-08-30T06:07:43.896Z,1.45
2022-08-30T06:10:12.571Z,1.02
2022-08-30T06:12:40.202Z,0.80
2022-08-30T06:15:08.522Z,0.63
2022-08-30T06:17:39.914Z,1.00
2022-08-30T06:20:10.769Z,1.00
2022-08-30T06:22:39.018Z,1.02
2022-08-30T06:25:07.133Z,0.80
2022-08-30T06:27:34.336Z,0.98
2022-08-30T06:30:01.813Z,1.00
2022-08-30T06:32:29.158Z,1.17
2022-08-30T06:34:56.321Z,1.20
2022-08-30T06:37:30.126Z,0.95
2022-08-30T06:40:38.385Z,0.90
2022-08-30T06:43:05.467Z,0.90
2022-08-30T06:45:35.552Z,0.93
2022-08-30T06:48:03.217Z,1.50
2022-08-30T06:50:32.034Z,1.30
2022-08-30T06:53:05.656Z,1.10
2022-08-30T06:55:36.127Z,0.90
2022-08-30T06:58:04.578Z,1.17
2022-08-30T07:00:31.832Z,1.00
2022-08-30T07:02:59.276Z,1.20
2022-08-30T07:05:26.409Z,1.42
2022-08-30T07:07:54.580Z,1.60
2022-08-30T07:10:22.236Z,1.42
2022-08-30T07:12:49.836Z,0.98
2022-08-30T07:15:20.645Z,1.30
2022-08-30T07:18:06.519Z,1.20
2022-08-30T07:20:40.624Z,1.25
2022-08-30T07:23:09.503Z,1.63
2022-08-30T07:25:41.490Z,1.00
2022-08-30T07:30:41.365Z,1.92
2022-08-30T07:33:09.379Z,1.02
2022-08-30T07:35:37.362Z,1.42
2022-08-30T07:38:04.821Z,1.90
2022-08-30T07:40:34.545Z,1.88
2022-08-30T07:43:02.409Z,1.60
2022-08-30T07:45:29.570Z,1.70
2022-08-30T07:47:57.776Z,1.80
2022-08-30T07:50:25.239Z,1.20
2022-08-30T07:52:52.379Z,1.08
2022-08-30T07:55:21.912Z,0.98
2022-08-30T07:57:49.539Z,0.98
2022-08-30T08:00:17.024Z,0.93
2022-08-30T08:02:45.292Z,0.90
2022-08-30T08:05:17.675Z,0.68
2022-08-30T08:07:46.159Z,1.40
2022-08-30T08:10:13.818Z,0.80
2022-08-30T08:12:45.816Z,0.68
2022-08-30T08:15:13.070Z,0.90
2022-08-30T08:17:40.172Z,1.30
2022-08-30T08:20:07.967Z,0.73
2022-08-30T08:22:40.074Z,0.77
2022-08-30T08:25:08.040Z,0.70
2022-08-30T08:27:35.104Z,0.95
2022-08-30T08:30:05.581Z,1.20
2022-08-30T08:32:35.241Z,1.10
2022-08-30T08:35:02.338Z,0.82
2022-08-30T08:37:31.715Z,1.92
2022-08-30T08:39:58.897Z,0.80
2022-08-30T08:42:41.873Z,0.98
2022-08-30T08:45:17.562Z,0.95
2022-08-30T08:48:26.466Z,1.00
2022-08-30T08:51:16.107Z,1.20
2022-08-30T08:53:53.554Z,0.63
2022-08-30T08:56:23.183Z,0.77
2022-08-30T08:58:57.878Z,0.70
2022-08-30T09:01:30.459Z,0.80
2022-08-30T09:04:02.095Z,0.98
2022-08-30T09:06:46.367Z,1.20
2022-08-30T09:09:18.911Z,1.05
2022-08-30T09:11:48.082Z,0.93
2022-08-30T09:14:21.954Z,1.25
2022-08-30T09:16:51.874Z,1.55
2022-08-30T09:19:39.822Z,1.25
2022-08-30T09:22:33.670Z,0.70
2022-08-30T09:25:11.016Z,0.63
2022-08-30T09:27:48.473Z,0.70
2022-08-30T09:30:18.670Z,0.55
2022-08-30T09:33:21.424Z,0.80
2022-08-30T09:35:52.272Z,1.30
2022-08-30T09:38:28.959Z,0.82
2022-08-30T09:40:59.855Z,0.85
2022-08-30T09:46:02.588Z,0.60
2022-08-30T09:48:42.517Z,0.52
2022-08-30T09:51:20.274Z,0.52
2022-08-30T09:57:12.898Z,0.82
2022-08-30T10:00:07.002Z,0.77
2022-08-30T10:03:03.294Z,0.60
2022-08-30T10:05:41.924Z,0.88
2022-08-30T10:08:38.325Z,0.57
2022-08-30T10:11:24.338Z,0.60
2022-08-30T10:14:15.523Z,0.98
2022-08-30T10:17:10.046Z,1.00
2022-08-30T10:19:51.370Z,0.73
2022-08-30T10:22:31.499Z,0.52
2022-08-30T10:25:16.129Z,1.17
2022-08-30T10:27:54.197Z,1.42
2022-08-30T10:30:23.125Z,1.15
2022-08-30T10:32:51.146Z,1.52
2022-08-30T10:35:34.069Z,1.95
2022-08-30T10:38:16.290Z,0.50
2022-08-30T10:41:09.034Z,0.50
2022-08-30T10:44:08.208Z,1.08
2022-08-30T10:46:48.070Z,0.90
2022-08-30T10:49:21.431Z,0.65
2022-08-30T10:52:14.077Z,0.50
2022-08-30T10:55:02.895Z,0.52
2022-08-30T10:57:32.664Z,0.50
2022-08-30T11:00:27.284Z,0.52
2022-08-30T11:03:24.744Z,0.50
2022-08-30T11:06:54.894Z,1.00
2022-08-30T11:09:39.231Z,1.40
2022-08-30T11:12:34.283Z,0.95
2022-08-30T11:15:24.780Z,0.57
2022-08-30T11:18:01.664Z,1.27
2022-08-30T11:20:44.812Z,0.80
2022-08-30T11:23:38.833Z,0.50
2022-08-30T11:26:15.955Z,0.40
2022-08-30T11:28:48.395Z,0.40
2022-08-30T11:31:21.049Z,0.68
2022-08-30T11:34:00.946Z,0.60
2022-08-30T11:36:46.148Z,1.10
2022-08-30T11:39:47.638Z,0.77
2022-08-30T11:42:32.110Z,0.70
2022-08-30T11:45:36.231Z,1.05
2022-08-30T11:48:10.050Z,1.45
2022-08-30T11:51:06.041Z,0.90
2022-08-30T11:53:51.005Z,0.90
2022-08-30T11:56:33.619Z,0.88
2022-08-30T11:59:47.292Z,0.60
2022-08-30T12:02:59.330Z,0.35
2022-08-30T12:05:39.746Z,0.60
2022-08-30T12:08:08.113Z,0.82
2022-08-30T12:10:57.473Z,0.85
2022-08-30T12:13:37.149Z,0.52
2022-08-30T12:16:09.468Z,0.80
2022-08-30T12:18:43.350Z,0.55
2022-08-30T12:21:21.365Z,0.40
2022-08-30T12:24:04.172Z,0.63
2022-08-30T12:26:36.067Z,0.90
2022-08-30T12:32:00.383Z,1.02
2022-08-30T12:34:50.685Z,1.05
2022-08-30T12:37:38.074Z,0.68
2022-08-30T12:40:14.007Z,0.77
2022-08-30T12:42:52.420Z,0.70
2022-08-30T12:45:24.531Z,0.60
2022-08-30T12:48:05.837Z,0.70
2022-08-30T12:50:51.833Z,0.70
2022-08-30T12:53:42.183Z,0.60
2022-08-30T12:56:13.713Z,0.70
2022-08-30T12:58:50.987Z,0.88
2022-08-30T13:01:37.384Z,0.80
2022-08-30T13:04:27.463Z,0.70
2022-08-30T13:07:23.964Z,0.60
2022-08-30T13:09:59.102Z,1.00
2022-08-30T13:12:28.885Z,0.93
2022-08-30T13:15:16.689Z,1.15
2022-08-30T13:17:46.679Z,0.75
2022-08-30T13:20:16.743Z,0.88
2022-08-30T13:23:09.824Z,1.00
2022-08-30T13:25:39.713Z,1.23
2022-08-30T13:28:07.826Z,0.70
2022-08-30T13:30:37.986Z,0.70
2022-08-30T13:33:05.076Z,0.90
2022-08-30T13:35:33.287Z,1.10
2022-08-30T13:38:04.338Z,1.10
2022-08-30T13:40:31.581Z,0.70
2022-08-30T13:42:59.283Z,0.70
2022-08-30T13:45:44.673Z,0.70
2022-08-30T13:48:13.984Z,0.93
2022-08-30T13:50:43.764Z,1.60
2022-08-30T13:53:13.270Z,0.75
2022-08-30T13:55:43.035Z,0.90
2022-08-30T13:58:13.716Z,0.70
2022-08-30T14:00:41.278Z,0.82
2022-08-30T14:03:08.425Z,0.68
2022-08-30T14:06:15.679Z,0.80
2022-08-30T14:08:48.897Z,0.65
2022-08-30T14:11:22.888Z,0.80
2022-08-30T14:16:42.469Z,0.70
2022-08-30T14:19:14.057Z,0.63
2022-08-30T14:21:41.984Z,0.60
2022-08-30T14:24:10.999Z,0.68
2022-08-30T14:26:49.668Z,0.90
2022-08-30T14:29:22.252Z,0.90
2022-08-30T14:31:52.177Z,0.80
2022-08-30T14:34:19.444Z,1.17
2022-08-30T14:36:47.451Z,1.10
2022-08-30T14:39:18.823Z,0.90
2022-08-30T14:41:53.342Z,1.63
2022-08-30T14:44:22.572Z,1.35
2022-08-30T14:46:58.603Z,1.40
2022-08-30T14:49:27.707Z,0.82
2022-08-30T14:51:55.492Z,0.88
2022-08-30T14:54:26.746Z,0.50
2022-08-30T14:56:55.077Z,0.60
2022-08-30T14:59:23.434Z,0.70
2022-08-30T15:01:50.487Z,0.70
2022-08-30T15:04:21.436Z,0.57
2022-08-30T15:06:50.441Z,0.50
2022-08-30T15:09:23.592Z,0.60
2022-08-30T15:11:53.519Z,0.65
2022-08-30T15:14:30.838Z,0.40
2022-08-30T15:16:59.593Z,0.70
2022-08-30T15:19:27.049Z,0.60
2022-08-30T15:21:54.396Z,0.75
2022-08-30T15:24:25.016Z,0.55
2022-08-30T15:27:00.399Z,0.68
2022-08-30T15:29:30.723Z,0.70
2022-08-30T15:32:01.935Z,0.82
2022-08-30T15:34:30.261Z,0.70
2022-08-30T15:37:00.779Z,0.60
2022-08-30T15:39:27.976Z,0.93
2022-08-30T15:42:00.688Z,1.02
2022-08-30T15:44:34.520Z,1.30
2022-08-30T15:47:04.538Z,1.20
2022-08-30T15:49:32.065Z,1.15
2022-08-30T15:52:05.488Z,1.42
2022-08-30T15:54:34.870Z,2.83
2022-08-30T15:57:02.208Z,2.67
2022-08-30T15:59:33.460Z,3.35
2022-08-30T16:02:00.595Z,2.17
2022-08-30T16:04:27.803Z,1.60
2022-08-30T16:06:54.924Z,1.17
2022-08-30T16:09:29.961Z,1.25
2022-08-30T16:12:00.684Z,1.75
2022-08-30T16:14:28.042Z,1.60
2022-08-30T16:16:55.479Z,1.50
2022-08-30T16:19:22.764Z,1.02
2022-08-30T16:21:50.239Z,0.85
2022-08-30T16:24:18.965Z,0.93
2022-08-30T16:26:50.249Z,1.23
2022-08-30T16:29:17.521Z,1.05
2022-08-30T16:31:45.343Z,0.80
2022-08-30T16:34:17.343Z,0.70
2022-08-30T16:36:47.518Z,0.90
2022-08-30T16:39:17.752Z,1.17
2022-08-30T16:41:45.637Z,1.00
2022-08-30T16:44:13.741Z,0.93
2022-08-30T16:46:43.453Z,1.17
2022-08-30T16:49:19.707Z,1.45
2022-08-30T16:51:48.884Z,1.08
2022-08-30T16:54:17.604Z,1.10
2022-08-30T16:56:45.717Z,1.20
2022-08-30T16:59:14.605Z,1.48
2022-08-30T17:01:44.743Z,2.10
2022-08-30T17:04:15.895Z,2.20
2022-08-30T17:06:50.097Z,1.30
2022-08-30T17:11:50.627Z,1.85
2022-08-30T17:14:27.608Z,2.05
2022-08-30T17:17:00.409Z,1.70
2022-08-30T17:19:28.803Z,1.25
2022-08-30T17:21:58.122Z,1.00
2022-08-30T17:24:30.910Z,1.40
2022-08-30T17:27:07.803Z,1.52
2022-08-30T17:29:35.088Z,1.35
2022-08-30T17:32:04.206Z,2.50
2022-08-30T17:34:39.902Z,1.10
2022-08-30T17:37:10.893Z,0.75
2022-08-30T17:39:41.200Z,1.50
2022-08-30T17:42:08.552Z,1.20
2022-08-30T17:44:42.311Z,1.15
2022-08-30T17:47:10.328Z,1.30
2022-08-30T17:49:40.909Z,0.90
2022-08-30T17:52:08.537Z,1.05
2022-08-30T17:54:41.205Z,1.08
2022-08-30T17:57:13.275Z,0.95
2022-08-30T17:59:45.274Z,0.63
2022-08-30T18:02:15.049Z,0.98
2022-08-30T18:04:43.700Z,0.80
2022-08-30T18:07:17.506Z,1.30
2022-08-30T18:09:47.926Z,2.25
2022-08-30T18:12:16.631Z,2.10
2022-08-30T18:14:47.208Z,4.35
2022-08-30T18:17:21.864Z,3.22
2022-08-30T18:19:49.743Z,2.60
2022-08-30T18:25:08.407Z,2.65
2022-08-30T18:30:31.146Z,1.48
2022-08-30T18:33:04.132Z,1.15
2022-08-30T18:35:34.106Z,1.20
2022-08-30T18:38:03.891Z,1.13
2022-08-30T18:40:31.308Z,0.88
2022-08-30T18:42:58.473Z,0.88
2022-08-30T18:45:25.696Z,1.08
2022-08-30T18:47:52.894Z,0.93
2022-08-30T18:50:20.829Z,1.38
2022-08-30T18:52:47.926Z,1.70
2022-08-30T18:55:17.708Z,0.98
2022-08-30T18:57:45.292Z,1.63
2022-08-30T19:00:17.143Z,1.35
2022-08-30T19:02:47.121Z,1.95
2022-08-30T19:05:16.910Z,2.22
2022-08-30T19:07:49.296Z,1.80
2022-08-30T19:10:26.395Z,1.90
2022-08-30T19:12:53.738Z,1.98
2022-08-30T19:15:22.961Z,2.03
2022-08-30T19:17:53.713Z,1.58
2022-08-30T19:20:23.631Z,1.33
2022-08-30T19:25:42.214Z,2.08
2022-08-30T19:28:11.002Z,0.88
2022-08-30T19:30:38.881Z,1.20
2022-08-30T19:33:06.461Z,1.50
2022-08-30T19:35:33.774Z,1.60
2022-08-30T19:38:01.097Z,1.17
2022-08-30T19:40:28.807Z,1.60
2022-08-30T19:42:56.080Z,1.65
2022-08-30T19:45:24.401Z,1.40
2022-08-30T19:47:53.374Z,1.83
2022-08-30T19:50:25.039Z,1.30
2022-08-30T19:52:54.771Z,1.10
2022-08-30T19:55:28.468Z,1.05
2022-08-30T19:57:57.150Z,0.80
2022-08-30T20:00:24.357Z,0.68
2022-08-30T20:02:52.086Z,1.27
2022-08-30T20:05:21.444Z,1.17
2022-08-30T20:07:51.052Z,1.30
2022-08-30T20:10:26.401Z,1.60
2022-08-30T20:12:55.782Z,0.98
2022-08-30T20:15:26.381Z,0.90
2022-08-30T20:18:13.629Z,0.90
2022-08-30T20:20:48.541Z,0.93
2022-08-30T20:23:17.703Z,0.88
2022-08-30T20:24:27.958Z,3.03
2022-08-30T20:24:28.064Z,1.60
2022-08-30T20:24:33.406Z,1.30
2022-08-30T20:25:50.848Z,0.95
2022-08-30T20:28:19.444Z,1.02
2022-08-30T20:30:47.340Z,1.10
2022-08-30T20:33:14.610Z,0.88
2022-08-30T20:35:49.041Z,0.90
2022-08-30T20:38:21.852Z,1.30
2022-08-30T20:40:56.845Z,0.95
2022-08-30T20:43:31.674Z,0.85
2022-08-30T20:45:59.460Z,1.00
2022-08-30T20:48:31.506Z,0.88
2022-08-30T20:51:01.979Z,1.05
2022-08-30T20:53:29.612Z,0.98
2022-08-30T20:55:56.809Z,0.93
2022-08-30T20:58:24.042Z,1.08
2022-08-30T21:00:54.166Z,1.15
2022-08-30T21:03:28.216Z,1.10
2022-08-30T21:06:00.072Z,0.90
2022-08-30T21:08:27.697Z,1.33
2022-08-30T21:10:55.469Z,1.13
2022-08-30T21:13:23.204Z,1.30
2022-08-30T21:16:00.548Z,1.40
2022-08-30T21:18:34.112Z,1.23
2022-08-30T21:21:21.245Z,1.40
2022-08-30T21:23:53.486Z,1.50
2022-08-30T21:28:52.990Z,1.60
